Tuesday, January 17, 2017, 3:55 AM EST

KMUI, Muir Army Air Field / Indiantown

Location: Jonestown, PA, United States Lat: 40.433
Local Time: 3:55 AM EST ( 8:55 GMT) Lon: -76.567
Time Zone: US/Eastern Elev: 488 ft

Show me the last for .
Show Decoded

2017-01-17 03:22 METAR KMUI 170822Z AUTO 00000KT 10SM OVC014 01/00 A3023 RMK AO2 $ =
2017-01-17 02:58 METAR KMUI 170758Z AUTO 00000KT 10SM OVC015 01/M01 A3025 RMK AO2 SLP251
                 T00121013 $ =
2017-01-17 02:50 METAR KMUI 170750Z AUTO 00000KT 10SM OVC015 01/M01 A3025 RMK AO2 =
2017-01-17 01:58 METAR KMUI 170658Z AUTO 07003KT 10SM OVC013 01/01 A3025 RMK AO2 SLP252 T00080007
                 $ =
2017-01-17 01:02 METAR KMUI 170602Z AUTO 00000KT 10SM OVC014 00/00 A3026 RMK AO2 =
2017-01-17 00:58 METAR KMUI 170558Z AUTO 00000KT 10SM OVC015 01/01 A3026 RMK AO2 SLP255 60000
                 T00090006 10014 20009 57018 $ =
2017-01-16 23:58 METAR KMUI 170458Z AUTO 00000KT 10SM OVC016 01/M01 A3027 RMK AO2 SLP258
                 T00111006 400251091 $ =
2017-01-16 23:00 METAR KMUI 170400Z AUTO 00000KT 10SM OVC019 01/00 A3030 RMK AO2 $ =
2017-01-16 22:58 METAR KMUI 170358Z AUTO 00000KT 10SM OVC020 01/01 A3030 RMK AO2 SLP269 T00100006
                 $ =
2017-01-16 21:58 METAR KMUI 170258Z AUTO 00000KT 10SM OVC021 01/M01 A3031 RMK AO2 RAB05E14 SLP272
                 P0000 60000 T00111008 57006 $ =
2017-01-16 21:16 METAR KMUI 170216Z AUTO 00000KT 10SM BKN022 OVC042 01/M02 A3033 RMK AO2 RAB05E14
                 CIG 022V042 BKN V FEW $ =
2017-01-16 21:14 METAR KMUI 170214Z AUTO 00000KT 10SM SCT022 OVC042 01/M02 A3033 RMK AO2 RAB05E14
                 =
2017-01-16 21:05 METAR KMUI 170205Z AUTO 00000KT 10SM -RA OVC042 01/M01 A3033 RMK AO2 RAB05 =
2017-01-16 20:58 METAR KMUI 170158Z AUTO 00000KT 10SM OVC043 01/M02 A3032 RMK AO2 SLP277
                 T00131017 $ =
2017-01-16 19:58 METAR KMUI 170058Z AUTO 00000KT 10SM OVC045 01/M02 A3033 RMK AO2 SLP281
                 T00131021 $ =
2017-01-16 18:58 METAR KMUI 162358Z AUTO 00000KT 10SM OVC060 01/M03 A3033 RMK AO2 SLP280
                 T00141030 10022 20013 56009 $ =
2017-01-16 18:36 METAR KMUI 162336Z AUTO 00000KT 10SM SCT024 OVC060 02/M03 A3034 RMK AO2 $ =
2017-01-16 17:58 METAR KMUI 162258Z AUTO 00000KT 10SM OVC023 02/M04 A3035 RMK AO2 SLP287
                 T00161037 $ =
2017-01-16 17:42 METAR KMUI 162242Z AUTO 00000KT 10SM BKN024 OVC080 02/M04 A3035 RMK AO2 CIG
                 024V080 BKN V SCT $ =
2017-01-16 17:12 METAR KMUI 162212Z AUTO 00000KT 10SM SCT022 OVC080 02/M04 A3035 RMK AO2 $ =
2017-01-16 16:58 METAR KMUI 162158Z AUTO 00000KT 10SM BKN022 OVC085 02/M04 A3035 RMK AO2 BKN V
                 OVC SLP287 T00201044 $ =
2017-01-16 15:58 METAR KMUI 162058Z AUTO 00000KT 10SM OVC021 02/M04 A3036 RMK AO2 SLP290
                 T00201044 55009 $ =
2017-01-16 15:16 METAR KMUI 162016Z AUTO 00000KT 10SM OVC020 02/M05 A3036 RMK AO2 $ =
2017-01-16 15:00 METAR KMUI 162000Z AUTO 16003KT 10SM OVC019 02/M05 A3036 RMK AO2 $ =
2017-01-16 14:58 METAR KMUI 161958Z AUTO 00000KT 10SM OVC020 02/M05 A3036 RMK AO2 SLP290
                 T00221048 $ =
2017-01-16 13:58 METAR KMUI 161858Z AUTO 26003KT 10SM OVC020 02/M06 A3036 RMK AO2 SLP290
                 T00211057 $ =
2017-01-16 12:58 METAR KMUI 161758Z AUTO 20004KT 10SM OVC024 02/M05 A3038 RMK AO2 SLP297
                 T00181053 10025 21091 57026 $ =
2017-01-16 12:08 METAR KMUI 161708Z AUTO 19003KT 10SM BKN027 02/M05 A3041 RMK AO2 BKN V FEW =
2017-01-16 11:58 METAR KMUI 161658Z AUTO 00000KT 10SM CLR 02/M05 A3042 RMK AO2 SLP310 T00221052 $
                 =
2017-01-16 10:58 METAR KMUI 161558Z AUTO 00000KT 10SM CLR 01/M05 A3045 RMK AO2 SLP321 T00051052 $
                 =
2017-01-16 09:58 METAR KMUI 161458Z AUTO 00000KT 10SM CLR M03/M03 A3046 RMK AO2 SLP325 T10261031
                 53004 $ =
2017-01-16 08:58 METAR KMUI 161358Z AUTO 00000KT 10SM CLR M06/M06 A3045 RMK AO2 SLP322 T10591059
                 $ =
2017-01-16 07:58 METAR KMUI 161258Z AUTO 00000KT 10SM CLR M09/M09 A3045 RMK AO2 SLP322 T10871087
                 $ =
2017-01-16 06:58 METAR KMUI 161158Z AUTO 00000KT 10SM CLR M08/M08 A3045 RMK AO2 SLP322 T10791079
                 11061 21090 53007 $ =
2017-01-16 05:58 METAR KMUI 161058Z AUTO 00000KT 10SM CLR M08/M08 A3044 RMK AO2 SLP318 T10851085
                 $ =
2017-01-16 04:58 METAR KMUI 160958Z AUTO 00000KT 10SM CLR M07/M07 A3043 RMK AO2 SLP314 T10701070
                 $ =
2017-01-16 03:58 METAR KMUI 160858Z AUTO 00000KT 10SM CLR M07/M07 A3043 RMK AO2 SLP314 T10751075
                 50002 $ =

Support USWX by starting your Amazon purchase here.